Time;durP1;ratioP1;P1;durP2;ratioP2;P2;SDS_P1;SDS_P2;PMS_P1;PMS_P2;Temp;Humidity;BMP_temperature;BMP_pressure;BME280_temperature;BME280_humidity;BME280_pressure;Samples;Min_cycle;Max_cycle;Signal;HPM_P1;HPM_P2
2022/05/13 00:00:28;;;;;;;1.50;0.40;;;;;18.00;101638.00;;;;5084199;28;20194;-77
2022/05/13 00:02:55;;;;;;;1.50;0.50;;;;;18.00;101641.00;;;;5086256;28;20194;-76
2022/05/13 00:05:24;;;;;;;1.75;0.60;;;;;18.00;101635.00;;;;5081092;28;20222;-77
2022/05/13 00:07:53;;;;;;;2.42;0.65;;;;;17.90;101637.00;;;;5081537;28;20237;-77
2022/05/13 00:10:20;;;;;;;2.35;0.60;;;;;17.90;101638.00;;;;5071879;28;20222;-77
2022/05/13 00:12:47;;;;;;;2.47;0.55;;;;;17.90;101644.00;;;;5082890;28;20640;-76
2022/05/13 00:15:18;;;;;;;3.47;0.88;;;;;17.90;101634.00;;;;5087777;28;20194;-76
2022/05/13 00:17:47;;;;;;;1.90;0.47;;;;;17.90;101622.00;;;;5078102;28;20660;-76
2022/05/13 00:20:16;;;;;;;1.60;0.35;;;;;17.90;101634.00;;;;5086462;28;20241;-77
2022/05/13 00:22:45;;;;;;;3.20;0.90;;;;;17.90;101633.00;;;;5085191;28;20254;-76
2022/05/13 00:25:16;;;;;;;1.05;0.60;;;;;17.80;101629.00;;;;5073996;28;20223;-76
2022/05/13 00:27:43;;;;;;;2.10;0.50;;;;;17.80;101626.00;;;;5076001;28;20194;-76
2022/05/13 00:30:12;;;;;;;3.28;0.90;;;;;17.80;101635.00;;;;5088371;28;20481;-76
2022/05/13 00:32:41;;;;;;;1.05;0.50;;;;;17.80;101621.00;;;;5081674;28;20202;-77
2022/05/13 00:35:09;;;;;;;3.65;0.40;;;;;17.80;101630.00;;;;5081296;28;20205;-76
2022/05/13 00:37:36;;;;;;;1.20;0.50;;;;;17.80;101617.00;;;;5076947;28;20206;-76
2022/05/13 00:40:05;;;;;;;2.67;0.55;;;;;17.70;101621.00;;;;5070140;28;20226;-76
2022/05/13 00:42:33;;;;;;;1.65;0.47;;;;;17.70;101616.00;;;;5080147;28;20198;-77
2022/05/13 00:45:00;;;;;;;2.72;0.50;;;;;17.70;101613.00;;;;5072084;28;20218;-76
2022/05/13 00:47:28;;;;;;;0.98;0.35;;;;;17.70;101606.00;;;;5075057;28;20738;-76
2022/05/13 00:49:57;;;;;;;1.20;0.50;;;;;17.60;101609.00;;;;5082226;28;20748;-77
2022/05/13 00:52:25;;;;;;;1.63;0.60;;;;;17.60;101607.00;;;;5085355;28;20297;-76
2022/05/13 00:54:53;;;;;;;2.17;0.93;;;;;17.60;101601.00;;;;5075457;28;20213;-76
2022/05/13 00:57:21;;;;;;;1.77;0.28;;;;;17.60;101603.00;;;;5082296;28;20931;-77
2022/05/13 00:59:53;;;;;;;2.22;0.50;;;;;17.50;101606.00;;;;5084756;28;20210;-77
2022/05/13 01:02:21;;;;;;;2.40;0.43;;;;;17.50;101616.00;;;;5080984;28;20667;-76
2022/05/13 01:04:49;;;;;;;2.08;0.52;;;;;17.50;101605.00;;;;5077412;28;20221;-77
2022/05/13 01:07:21;;;;;;;2.08;0.52;;;;;17.40;101597.00;;;;5085317;28;20206;-77
2022/05/13 01:09:52;;;;;;;1.38;0.38;;;;;17.40;101600.00;;;;5076802;28;20232;-76
2022/05/13 01:12:24;;;;;;;2.28;0.47;;;;;17.40;101606.00;;;;5085280;28;20206;-76
2022/05/13 01:14:58;;;;;;;2.00;0.90;;;;;17.40;101601.00;;;;5087378;28;20595;-77
2022/05/13 01:20:15;;;;;;;2.85;0.50;;;;;17.40;101607.00;;;;5074821;28;20568;-77
2022/05/13 01:22:50;;;;;;;2.35;0.65;;;;;17.30;101595.00;;;;5075957;28;20658;-77
2022/05/13 01:25:23;;;;;;;4.18;0.60;;;;;17.30;101590.00;;;;5086119;28;20755;-77
2022/05/13 01:27:50;;;;;;;1.15;0.52;;;;;17.30;101597.00;;;;5082547;28;20325;-77
2022/05/13 01:30:25;;;;;;;2.80;0.60;;;;;17.30;101592.00;;;;5072023;28;20207;-77
2022/05/13 01:32:53;;;;;;;2.65;0.90;;;;;17.30;101594.00;;;;5077464;28;20198;-77
2022/05/13 01:35:21;;;;;;;2.13;0.70;;;;;17.30;101593.00;;;;5074706;28;20286;-76
2022/05/13 01:37:49;;;;;;;5.32;0.68;;;;;17.30;101595.00;;;;5081291;28;20707;-76
2022/05/13 01:40:17;;;;;;;1.17;0.50;;;;;17.30;101596.00;;;;5073136;28;20283;-76
2022/05/13 01:42:45;;;;;;;2.20;0.68;;;;;17.30;101601.00;;;;5083602;28;20283;-76
2022/05/13 01:45:13;;;;;;;2.13;0.90;;;;;17.30;101602.00;;;;5076172;28;20584;-76
2022/05/13 01:47:40;;;;;;;2.58;0.77;;;;;17.30;101605.00;;;;5084651;28;20201;-76
2022/05/13 01:50:09;;;;;;;2.65;0.70;;;;;17.30;101601.00;;;;5083650;28;20225;-76
2022/05/13 01:52:36;;;;;;;4.10;0.68;;;;;17.30;101600.00;;;;5084504;28;20211;-76
2022/05/13 01:55:05;;;;;;;3.50;0.63;;;;;17.30;101604.00;;;;5084806;28;20201;-77
2022/05/13 01:57:33;;;;;;;2.08;0.80;;;;;17.40;101598.00;;;;5082919;28;20198;-76
2022/05/13 02:00:01;;;;;;;3.35;0.90;;;;;17.40;101601.00;;;;5085390;28;20206;-77
2022/05/13 02:02:28;;;;;;;3.58;0.70;;;;;17.40;101594.00;;;;5085154;28;20318;-76
2022/05/13 02:04:55;;;;;;;3.15;1.08;;;;;17.50;101604.00;;;;5080221;28;20206;-77
2022/05/13 02:07:22;;;;;;;3.67;0.93;;;;;17.50;101601.00;;;;5081306;28;20646;-76
2022/05/13 02:09:49;;;;;;;2.45;0.90;;;;;17.50;101594.00;;;;5083854;28;20206;-76
2022/05/13 02:12:18;;;;;;;2.88;1.02;;;;;17.50;101592.00;;;;5078354;28;20568;-76
2022/05/13 02:14:45;;;;;;;3.63;1.13;;;;;17.60;101595.00;;;;5076693;28;20194;-76
2022/05/13 02:17:12;;;;;;;2.53;0.85;;;;;17.60;101597.00;;;;5080193;28;20202;-76
2022/05/13 02:19:40;;;;;;;2.20;0.68;;;;;17.60;101593.00;;;;5083590;28;20190;-76
2022/05/13 02:22:07;;;;;;;4.82;1.13;;;;;17.70;101587.00;;;;5087918;28;20225;-77
2022/05/13 02:24:34;;;;;;;3.90;1.27;;;;;17.70;101586.00;;;;5089758;28;20197;-77
2022/05/13 02:27:01;;;;;;;3.00;0.82;;;;;17.70;101591.00;;;;5080739;28;20824;-77
2022/05/13 02:29:30;;;;;;;4.55;0.90;;;;;17.80;101584.00;;;;5089090;28;20202;-77
2022/05/13 02:31:57;;;;;;;3.63;0.88;;;;;17.80;101585.00;;;;5090601;28;20251;-77
2022/05/13 02:34:24;;;;;;;1.77;0.75;;;;;17.80;101580.00;;;;5088218;28;20198;-76
2022/05/13 02:36:51;;;;;;;3.85;0.82;;;;;17.90;101589.00;;;;5081850;28;20726;-76
2022/05/13 02:39:18;;;;;;;4.10;1.05;;;;;17.90;101585.00;;;;5090356;28;20221;-76
2022/05/13 02:41:46;;;;;;;7.20;2.17;;;;;17.90;101593.00;;;;5084995;28;20195;-77
2022/05/13 02:44:14;;;;;;;2.47;1.10;;;;;18.00;101589.00;;;;5082091;28;20651;-77
2022/05/13 02:46:43;;;;;;;3.20;1.50;;;;;18.00;101590.00;;;;5086825;28;20337;-77
2022/05/13 02:49:10;;;;;;;7.00;1.77;;;;;18.00;101580.00;;;;5084181;28;20608;-77
2022/05/13 02:51:43;;;;;;;6.45;2.05;;;;;18.00;101573.00;;;;5086303;28;20226;-77
2022/05/13 02:54:10;;;;;;;4.63;1.48;;;;;18.00;101571.00;;;;5091102;28;20199;-77
2022/05/13 02:56:38;;;;;;;3.55;1.60;;;;;18.10;101573.00;;;;5088584;28;20213;-77
2022/05/13 02:59:06;;;;;;;4.80;1.70;;;;;18.10;101560.00;;;;5085686;28;20195;-76
2022/05/13 03:01:34;;;;;;;4.38;1.88;;;;;18.10;101561.00;;;;5083428;28;20202;-77
2022/05/13 03:04:02;;;;;;;4.22;1.92;;;;;18.10;101559.00;;;;5085973;28;20206;-77
2022/05/13 03:06:32;;;;;;;3.08;1.50;;;;;18.20;101559.00;;;;5089145;28;20214;-77
2022/05/13 03:09:00;;;;;;;3.10;1.60;;;;;18.20;101558.00;;;;5088210;28;20205;-77
2022/05/13 03:11:27;;;;;;;3.10;1.33;;;;;18.20;101561.00;;;;5090199;28;20198;-77
2022/05/13 03:13:55;;;;;;;3.78;1.25;;;;;18.20;101564.00;;;;5078418;28;20206;-77
2022/05/13 03:16:25;;;;;;;3.10;1.40;;;;;18.20;101559.00;;;;5079586;28;20675;-77
2022/05/13 03:18:54;;;;;;;3.20;1.65;;;;;18.30;101568.00;;;;5087629;28;20205;-77
2022/05/13 03:21:24;;;;;;;7.63;2.25;;;;;18.30;101568.00;;;;5087133;28;20197;-77
2022/05/13 03:23:51;;;;;;;3.92;1.35;;;;;18.30;101565.00;;;;5078258;28;20206;-77
2022/05/13 03:26:21;;;;;;;6.03;1.70;;;;;18.30;101568.00;;;;5077545;28;20233;-77
2022/05/13 03:28:48;;;;;;;6.20;2.03;;;;;18.30;101572.00;;;;5082881;28;20197;-77
2022/05/13 03:31:16;;;;;;;3.72;1.65;;;;;18.30;101577.00;;;;5089706;28;20206;-77
2022/05/13 03:33:43;;;;;;;2.92;1.70;;;;;18.30;101572.00;;;;5083240;28;20207;-77
2022/05/13 03:36:12;;;;;;;5.97;2.15;;;;;18.30;101586.00;;;;5086537;28;20205;-77
2022/05/13 03:38:41;;;;;;;3.85;1.88;;;;;18.30;101577.00;;;;5074118;28;20190;-77
2022/05/13 03:41:10;;;;;;;6.15;2.35;;;;;18.40;101572.00;;;;5077363;28;20751;-77
2022/05/13 03:43:37;;;;;;;5.22;1.85;;;;;18.30;101572.00;;;;5085917;28;20206;-77
2022/05/13 03:46:04;;;;;;;7.55;1.73;;;;;18.30;101581.00;;;;5086783;28;20230;-77
2022/05/13 03:48:31;;;;;;;4.38;1.88;;;;;18.30;101583.00;;;;5074081;28;20604;-77
2022/05/13 03:50:59;;;;;;;4.53;2.17;;;;;18.30;101575.00;;;;5089412;28;20211;-77
2022/05/13 03:53:26;;;;;;;4.88;1.85;;;;;18.30;101581.00;;;;5086837;28;20645;-77
2022/05/13 03:55:55;;;;;;;4.30;2.17;;;;;18.30;101575.00;;;;5084307;28;20572;-77
2022/05/13 03:58:22;;;;;;;6.70;2.53;;;;;18.30;101582.00;;;;5088141;28;20591;-76
2022/05/13 04:00:51;;;;;;;4.57;2.20;;;;;18.30;101589.00;;;;5086569;28;20190;-77
2022/05/13 04:03:19;;;;;;;4.78;1.95;;;;;18.30;101581.00;;;;5084895;28;20728;-77
2022/05/13 04:08:58;;;;;;;5.75;1.55;;;;;18.30;101582.00;;;;4985059;28;20285;-77
2022/05/13 04:11:27;;;;;;;4.40;1.70;;;;;18.30;101586.00;;;;5069554;28;20198;-77
2022/05/13 04:16:40;;;;;;;4.75;2.35;;;;;18.30;101585.00;;;;5078471;28;20210;-77
2022/05/13 04:19:08;;;;;;;4.38;2.03;;;;;18.20;101593.00;;;;5085653;28;20660;-77
2022/05/13 04:21:37;;;;;;;7.35;2.40;;;;;18.20;101587.00;;;;5084947;28;20259;-77
2022/05/13 04:24:07;;;;;;;7.50;1.88;;;;;18.20;101586.00;;;;5085061;28;20583;-77
2022/05/13 04:26:36;;;;;;;6.78;2.55;;;;;18.20;101589.00;;;;5083963;28;20248;-77
2022/05/13 04:29:04;;;;;;;5.88;2.10;;;;;18.20;101597.00;;;;5075956;28;20210;-77
2022/05/13 04:31:35;;;;;;;4.18;1.75;;;;;18.20;101598.00;;;;5085748;28;20693;-77
2022/05/13 04:34:02;;;;;;;3.95;2.30;;;;;18.20;101601.00;;;;5085880;28;20683;-76
2022/05/13 04:36:30;;;;;;;7.57;1.70;;;;;18.20;101600.00;;;;5084303;28;20197;-77
2022/05/13 04:38:57;;;;;;;5.38;2.25;;;;;18.20;101604.00;;;;5086173;28;20206;-77
2022/05/13 04:44:16;;;;;;;3.85;2.20;;;;;18.20;101599.00;;;;5077233;28;20337;-77
2022/05/13 04:46:44;;;;;;;5.07;2.00;;;;;18.20;101603.00;;;;5086110;28;20225;-77
2022/05/13 04:49:11;;;;;;;4.32;2.38;;;;;18.20;101609.00;;;;5074117;28;20202;-76
2022/05/13 04:51:39;;;;;;;2.90;1.77;;;;;18.20;101608.00;;;;5078330;28;20714;-77
2022/05/13 04:54:07;;;;;;;5.30;2.83;;;;;18.20;101612.00;;;;5076053;28;20214;-77
2022/05/13 04:56:35;;;;;;;5.28;2.53;;;;;18.20;101621.00;;;;5079161;28;21389;-77
2022/05/13 04:59:02;;;;;;;4.72;2.13;;;;;18.20;101621.00;;;;5072363;28;20626;-77
2022/05/13 05:01:31;;;;;;;9.80;2.20;;;;;18.20;101633.00;;;;5077600;28;20676;-77
2022/05/13 05:03:58;;;;;;;7.00;2.63;;;;;18.30;101626.00;;;;5078824;28;20205;-77
2022/05/13 05:06:25;;;;;;;5.85;2.30;;;;;18.30;101630.00;;;;5076947;28;20255;-77
2022/05/13 05:08:56;;;;;;;8.40;2.70;;;;;18.40;101640.00;;;;5078212;28;20206;-77
2022/05/13 05:11:23;;;;;;;3.78;1.80;;;;;18.40;101639.00;;;;5079700;28;20202;-77
2022/05/13 05:13:52;;;;;;;5.38;2.17;;;;;18.40;101649.00;;;;5071602;28;20199;-77
2022/05/13 05:16:22;;;;;;;6.95;2.33;;;;;18.50;101649.00;;;;5078350;28;20236;-77
2022/05/13 05:18:51;;;;;;;5.93;2.80;;;;;18.50;101647.00;;;;5076796;28;20191;-77
2022/05/13 05:21:18;;;;;;;5.22;2.03;;;;;18.60;101649.00;;;;5077530;28;20198;-78
2022/05/13 05:23:46;;;;;;;5.57;2.08;;;;;18.60;101645.00;;;;5077709;28;20199;-78
2022/05/13 05:26:13;;;;;;;7.30;2.65;;;;;18.70;101656.00;;;;5077835;28;20225;-78
2022/05/13 05:28:42;;;;;;;5.38;2.22;;;;;18.70;101646.00;;;;5078132;28;20206;-76
2022/05/13 05:31:12;;;;;;;6.53;2.47;;;;;18.80;101641.00;;;;5076812;28;20202;-76
2022/05/13 05:33:39;;;;;;;7.88;2.30;;;;;18.80;101648.00;;;;5076704;28;20215;-78
2022/05/13 05:36:08;;;;;;;6.28;2.10;;;;;18.90;101644.00;;;;5072275;28;20206;-77
2022/05/13 05:38:39;;;;;;;5.05;2.30;;;;;18.90;101654.00;;;;5075575;28;20232;-77
2022/05/13 05:41:06;;;;;;;4.28;2.30;;;;;19.00;101654.00;;;;5078325;28;20333;-77
2022/05/13 05:43:35;;;;;;;4.55;1.83;;;;;19.00;101654.00;;;;5089115;28;20202;-76
2022/05/13 05:46:03;;;;;;;7.32;2.88;;;;;19.00;101665.00;;;;5076901;28;20202;-75
2022/05/13 05:48:31;;;;;;;5.95;2.08;;;;;19.10;101671.00;;;;5071962;28;20209;-77
2022/05/13 05:50:59;;;;;;;4.28;2.38;;;;;19.10;101673.00;;;;5082173;28;20218;-76
2022/05/13 05:59:02;;;;;;;5.47;2.35;;;;;19.30;101672.00;;;;5084631;28;20274;-76
2022/05/13 06:01:32;;;;;;;9.77;2.50;;;;;19.30;101677.00;;;;5072666;28;20199;-76
2022/05/13 06:03:59;;;;;;;5.63;2.28;;;;;19.40;101685.00;;;;5075489;28;20206;-77
2022/05/13 06:06:27;;;;;;;6.05;2.58;;;;;19.40;101694.00;;;;5085460;28;20710;-77
2022/05/13 06:08:57;;;;;;;5.40;2.15;;;;;19.50;101698.00;;;;5087008;28;20645;-77
2022/05/13 06:11:25;;;;;;;8.43;2.55;;;;;19.50;101696.00;;;;5086884;28;20233;-77
2022/05/13 06:13:53;;;;;;;5.57;2.40;;;;;19.60;101688.00;;;;5078065;28;20202;-77
2022/05/13 06:16:22;;;;;;;4.88;1.65;;;;;19.60;101694.00;;;;5083980;28;20293;-77
2022/05/13 06:18:50;;;;;;;6.85;2.17;;;;;19.60;101706.00;;;;5085832;28;20226;-77
2022/05/13 06:21:17;;;;;;;7.18;2.22;;;;;19.70;101697.00;;;;5084682;28;20202;-77
2022/05/13 06:23:44;;;;;;;7.90;2.45;;;;;19.70;101698.00;;;;5084927;28;20251;-77
2022/05/13 06:26:13;;;;;;;5.85;2.17;;;;;19.80;101704.00;;;;5085396;28;20191;-77
2022/05/13 06:28:40;;;;;;;9.43;2.33;;;;;19.80;101700.00;;;;5081276;28;20567;-76
2022/05/13 06:31:07;;;;;;;3.85;1.75;;;;;19.90;101697.00;;;;5086558;28;20205;-77
2022/05/13 06:33:35;;;;;;;4.72;2.00;;;;;19.90;101700.00;;;;5080754;28;20282;-76
2022/05/13 06:36:02;;;;;;;5.78;2.40;;;;;19.90;101701.00;;;;5087158;28;20240;-77
2022/05/13 06:38:29;;;;;;;6.00;2.20;;;;;20.00;101702.00;;;;5088099;28;20213;-77
2022/05/13 06:40:57;;;;;;;6.05;1.42;;;;;20.00;101709.00;;;;5087136;28;20575;-76
2022/05/13 06:43:25;;;;;;;5.53;1.60;;;;;20.10;101707.00;;;;5087812;28;20214;-76
2022/05/13 06:45:53;;;;;;;4.97;1.50;;;;;20.10;101709.00;;;;5084057;28;20614;-75
2022/05/13 06:48:20;;;;;;;4.15;1.02;;;;;20.20;101707.00;;;;5083529;28;20218;-75
2022/05/13 06:50:48;;;;;;;2.47;0.82;;;;;20.20;101703.00;;;;5086416;28;20735;-76
2022/05/13 06:53:16;;;;;;;5.65;1.08;;;;;20.20;101708.00;;;;5086490;28;20202;-76
2022/05/13 06:55:44;;;;;;;1.65;1.10;;;;;20.30;101714.00;;;;5085409;28;20195;-76
2022/05/13 06:58:11;;;;;;;3.95;1.15;;;;;20.30;101718.00;;;;5085490;28;20206;-76
2022/05/13 07:00:40;;;;;;;3.55;0.80;;;;;20.40;101719.00;;;;5080694;28;20228;-75
2022/05/13 07:03:11;;;;;;;6.40;1.13;;;;;20.40;101720.00;;;;5085056;28;20211;-76
2022/05/13 07:05:38;;;;;;;2.35;0.70;;;;;20.50;101726.00;;;;5084513;28;20210;-76
2022/05/13 07:08:06;;;;;;;3.83;1.00;;;;;20.50;101713.00;;;;5087725;28;20734;-76
2022/05/13 07:10:33;;;;;;;1.67;0.60;;;;;20.60;101711.00;;;;5083179;28;20233;-77
2022/05/13 07:13:04;;;;;;;3.80;0.60;;;;;20.60;101719.00;;;;5079262;28;20290;-76
2022/05/13 07:15:31;;;;;;;1.92;0.77;;;;;20.70;101719.00;;;;5075460;28;20619;-76
2022/05/13 07:18:00;;;;;;;2.92;0.65;;;;;20.70;101728.00;;;;5089951;28;20679;-76
2022/05/13 07:20:27;;;;;;;1.88;0.60;;;;;20.80;101731.00;;;;5088911;28;20201;-76
2022/05/13 07:22:55;;;;;;;1.35;0.60;;;;;20.90;101726.00;;;;5089729;28;20198;-77
2022/05/13 07:25:22;;;;;;;1.35;0.70;;;;;21.00;101731.00;;;;5081558;28;20206;-77
2022/05/13 07:27:50;;;;;;;2.10;0.70;;;;;21.00;101730.00;;;;5088229;28;20226;-77
2022/05/13 07:30:18;;;;;;;1.92;0.52;;;;;21.10;101735.00;;;;5089088;28;20680;-76
2022/05/13 07:32:46;;;;;;;1.83;0.68;;;;;21.10;101736.00;;;;5089309;28;20208;-77
2022/05/13 07:35:14;;;;;;;1.00;0.50;;;;;21.20;101746.00;;;;5088412;28;20672;-76
2022/05/13 07:37:42;;;;;;;1.58;0.60;;;;;21.20;101747.00;;;;5084653;28;20186;-77
2022/05/13 07:42:55;;;;;;;5.03;0.80;;;;;21.30;101759.00;;;;5085468;28;20220;-75
2022/05/13 07:45:22;;;;;;;3.70;1.00;;;;;21.40;101753.00;;;;5086450;28;20561;-75
2022/05/13 07:47:49;;;;;;;4.30;0.80;;;;;21.40;101754.00;;;;5076502;28;20264;-75
2022/05/13 07:50:18;;;;;;;3.58;0.60;;;;;21.40;101758.00;;;;5079080;28;20225;-77
2022/05/13 07:52:45;;;;;;;2.75;0.50;;;;;21.40;101751.00;;;;5080198;28;20205;-76
2022/05/13 07:55:15;;;;;;;3.90;0.90;;;;;21.40;101758.00;;;;5079115;28;20201;-76
2022/05/13 07:57:44;;;;;;;3.70;0.63;;;;;21.40;101751.00;;;;5079477;28;20208;-76
2022/05/13 08:00:26;;;;;;;3.03;0.60;;;;;21.40;101748.00;;;;5080405;28;20819;-75
2022/05/13 08:02:54;;;;;;;3.50;1.20;;;;;21.50;101762.00;;;;5076489;28;20327;-77
2022/05/13 08:05:23;;;;;;;2.70;0.90;;;;;21.60;101767.00;;;;5083652;28;20202;-76
2022/05/13 08:07:58;;;;;;;1.85;0.68;;;;;21.70;101759.00;;;;5077426;28;20217;-77
2022/05/13 08:10:25;;;;;;;2.72;0.45;;;;;21.80;101765.00;;;;5077306;28;20194;-76
2022/05/13 08:12:53;;;;;;;2.97;0.60;;;;;21.90;101785.00;;;;5085660;28;20198;-76
2022/05/13 08:15:20;;;;;;;1.70;0.80;;;;;21.90;101768.00;;;;5085596;28;20226;-76
2022/05/13 08:17:47;;;;;;;1.65;0.50;;;;;21.90;101770.00;;;;5078233;28;20206;-76
2022/05/13 08:20:15;;;;;;;2.70;0.50;;;;;22.00;101769.00;;;;5077201;28;20206;-75
2022/05/13 08:22:45;;;;;;;1.15;0.40;;;;;22.00;101777.00;;;;5079885;28;20198;-76
2022/05/13 08:25:12;;;;;;;3.22;0.50;;;;;22.10;101776.00;;;;5080534;28;20290;-76
2022/05/13 08:27:41;;;;;;;2.78;0.77;;;;;22.10;101779.00;;;;5084712;28;20271;-76
2022/05/13 08:30:13;;;;;;;4.28;0.95;;;;;22.20;101777.00;;;;5080117;28;20190;-76
2022/05/13 08:32:41;;;;;;;2.70;0.73;;;;;22.20;101778.00;;;;5078648;28;20198;-76
2022/05/13 08:35:09;;;;;;;1.88;0.82;;;;;22.20;101769.00;;;;5080633;28;20264;-76
2022/05/13 08:37:41;;;;;;;5.43;0.50;;;;;22.20;101783.00;;;;5079461;28;20203;-76
2022/05/13 08:40:16;;;;;;;2.35;0.75;;;;;22.30;101781.00;;;;5077501;28;20250;-76
2022/05/13 08:42:47;;;;;;;1.83;0.50;;;;;22.30;101779.00;;;;5083656;28;20190;-77
2022/05/13 08:45:17;;;;;;;1.63;0.40;;;;;22.40;101786.00;;;;5082857;28;20198;-75
2022/05/13 08:47:52;;;;;;;4.68;0.68;;;;;22.40;101783.00;;;;5080331;28;20226;-76
2022/05/13 08:50:25;;;;;;;1.52;0.57;;;;;22.50;101786.00;;;;5078626;28;20224;-76
2022/05/13 08:53:08;;;;;;;0.70;0.32;;;;;22.60;101794.00;;;;5078293;28;20198;-76
2022/05/13 08:55:42;;;;;;;1.80;0.60;;;;;22.80;101787.00;;;;5081854;28;20190;-75
2022/05/13 08:58:15;;;;;;;3.83;0.65;;;;;23.00;101781.00;;;;5080473;28;20569;-75
2022/05/13 09:00:45;;;;;;;3.60;0.50;;;;;23.10;101788.00;;;;5077376;28;20583;-76
2022/05/13 09:03:29;;;;;;;4.78;1.05;;;;;23.20;101795.00;;;;5077536;28;20244;-76
2022/05/13 09:06:02;;;;;;;3.42;0.90;;;;;23.30;101798.00;;;;5096768;28;20568;-75
2022/05/13 09:08:30;;;;;;;1.20;0.38;;;;;23.40;101803.00;;;;5082286;28;20229;-76
2022/05/13 09:11:12;;;;;;;1.67;0.65;;;;;23.30;101804.00;;;;5084380;28;20198;-76
2022/05/13 09:13:50;;;;;;;3.65;0.77;;;;;23.40;101803.00;;;;5084437;28;20206;-74
2022/05/13 09:16:29;;;;;;;5.40;0.80;;;;;23.40;101799.00;;;;5082291;28;20194;-74
2022/05/13 09:19:03;;;;;;;5.15;1.10;;;;;23.50;101813.00;;;;5077693;28;20207;-75
2022/05/13 09:21:30;;;;;;;4.03;0.93;;;;;23.60;101806.00;;;;5081723;28;20289;-76
2022/05/13 09:23:58;;;;;;;3.05;0.93;;;;;23.60;101807.00;;;;5086416;28;20267;-75
2022/05/13 09:26:27;;;;;;;1.85;0.60;;;;;23.60;101804.00;;;;5088016;28;20210;-75
2022/05/13 09:29:11;;;;;;;1.02;0.40;;;;;23.60;101806.00;;;;5080993;28;20226;-75
2022/05/13 09:31:40;;;;;;;2.08;0.70;;;;;23.80;101806.00;;;;5076621;28;20194;-75
2022/05/13 09:34:17;;;;;;;2.05;0.63;;;;;23.70;101813.00;;;;5080711;28;20195;-75
2022/05/13 09:36:44;;;;;;;6.30;1.10;;;;;23.80;101832.00;;;;5080965;28;20668;-75
2022/05/13 09:39:22;;;;;;;1.55;0.80;;;;;23.70;101819.00;;;;5088640;28;20233;-75
2022/05/13 09:41:52;;;;;;;4.38;0.60;;;;;23.80;101818.00;;;;5086067;28;20205;-75
2022/05/13 09:44:22;;;;;;;2.53;0.70;;;;;23.80;101828.00;;;;5073093;28;20222;-75
2022/05/13 09:46:52;;;;;;;8.38;1.13;;;;;23.70;101821.00;;;;5068462;28;20696;-75
2022/05/13 09:49:29;;;;;;;1.45;0.80;;;;;23.60;101832.00;;;;5086513;28;20633;-75
2022/05/13 09:51:59;;;;;;;3.17;0.70;;;;;23.60;101822.00;;;;5085708;28;20214;-75
2022/05/13 09:54:31;;;;;;;3.83;0.90;;;;;23.60;101822.00;;;;5079526;28;20195;-75
2022/05/13 09:57:11;;;;;;;2.88;0.98;;;;;23.50;101822.00;;;;5077713;28;20209;-75
2022/05/13 09:59:41;;;;;;;1.90;0.70;;;;;23.60;101832.00;;;;5087943;28;20199;-76
2022/05/13 10:02:22;;;;;;;2.88;1.00;;;;;23.50;101821.00;;;;5072290;28;20721;-75
2022/05/13 10:04:55;;;;;;;1.77;0.93;;;;;23.50;101824.00;;;;5081643;28;20692;-75
2022/05/13 10:07:24;;;;;;;1.98;0.77;;;;;23.60;101820.00;;;;5076022;28;20198;-75
2022/05/13 10:15:32;;;;;;;3.67;0.85;;;;;23.60;101824.00;;;;5080055;28;20261;-75
2022/05/13 10:18:06;;;;;;;2.53;0.98;;;;;23.70;101831.00;;;;5076019;28;20198;-75
2022/05/13 10:20:40;;;;;;;3.55;0.98;;;;;23.80;101825.00;;;;5081650;28;20219;-76
2022/05/13 10:23:13;;;;;;;2.80;0.93;;;;;23.90;101829.00;;;;5078034;28;20205;-75
2022/05/13 10:25:56;;;;;;;2.78;0.82;;;;;23.90;101828.00;;;;5079911;28;20202;-74
2022/05/13 10:28:30;;;;;;;5.45;0.80;;;;;23.90;101825.00;;;;5078214;28;20359;-74
2022/05/13 10:31:03;;;;;;;5.63;1.00;;;;;24.00;101832.00;;;;5074204;28;20193;-75
2022/05/13 10:33:36;;;;;;;2.63;0.98;;;;;24.00;101831.00;;;;5076629;28;20604;-75
2022/05/13 10:36:08;;;;;;;1.85;0.75;;;;;24.00;101829.00;;;;5077092;28;20198;-75
2022/05/13 10:38:41;;;;;;;2.20;0.60;;;;;24.10;101832.00;;;;5076974;28;20636;-75
2022/05/13 10:41:32;;;;;;;5.93;1.23;;;;;24.10;101823.00;;;;5084508;28;20231;-77
2022/05/13 10:44:07;;;;;;;1.73;0.40;;;;;24.30;101822.00;;;;5084546;28;20205;-75
2022/05/13 10:46:44;;;;;;;4.60;1.05;;;;;24.50;101827.00;;;;5085463;28;20193;-75
2022/05/13 10:49:12;;;;;;;2.75;0.93;;;;;24.70;101828.00;;;;5076172;28;20910;-75
2022/05/13 10:51:45;;;;;;;2.55;0.77;;;;;24.80;101836.00;;;;5079640;28;20218;-76
2022/05/13 10:54:37;;;;;;;3.83;0.95;;;;;24.80;101831.00;;;;5090916;28;20280;-75
2022/05/13 10:57:17;;;;;;;2.60;1.30;;;;;25.00;101835.00;;;;5090770;28;20187;-75
2022/05/13 11:00:01;;;;;;;2.25;0.70;;;;;24.90;101830.00;;;;5089187;28;20695;-75
2022/05/13 11:02:58;;;;;;;2.35;1.17;;;;;25.00;101812.00;;;;5087281;28;20194;-75
2022/05/13 11:05:34;;;;;;;2.60;0.70;;;;;25.20;101824.00;;;;5088689;28;20198;-75
2022/05/13 11:08:12;;;;;;;1.83;0.85;;;;;25.30;101834.00;;;;5074728;28;20226;-74
2022/05/13 11:10:46;;;;;;;2.55;0.77;;;;;25.40;101853.00;;;;5088238;28;20721;-74
2022/05/13 11:13:21;;;;;;;3.08;1.35;;;;;25.40;101845.00;;;;5091102;28;20201;-74
2022/05/13 11:15:58;;;;;;;4.28;1.00;;;;;25.30;101823.00;;;;5090681;28;20531;-74
2022/05/13 11:18:34;;;;;;;1.88;0.80;;;;;25.30;101836.00;;;;5089624;28;20683;-75
2022/05/13 11:21:11;;;;;;;1.67;0.90;;;;;25.30;101832.00;;;;5091228;28;20555;-75
2022/05/13 11:25:54;;;;;;;1.73;0.70;;;;;25.20;101835.00;;;;5080014;28;20202;-75
2022/05/13 11:26:41;;;;;;;0.90;0.47;;;;;25.30;101836.00;;;;5090019;28;20202;-75
2022/05/13 11:29:10;;;;;;;1.55;0.70;;;;;25.30;101829.00;;;;5090975;28;20309;-75
2022/05/13 11:32:12;;;;;;;3.10;0.93;;;;;25.10;101838.00;;;;5090922;28;20280;-75
2022/05/13 11:34:51;;;;;;;5.00;0.90;;;;;25.10;101836.00;;;;5071242;28;20206;-74
2022/05/13 11:37:21;;;;;;;1.90;0.88;;;;;25.20;101840.00;;;;5077015;28;20202;-74
2022/05/13 11:40:02;;;;;;;6.47;0.57;;;;;25.10;101834.00;;;;5089812;28;20226;-74
2022/05/13 11:43:18;;;;;;;4.75;0.80;;;;;25.20;101852.00;;;;5090449;28;20730;-74
2022/05/13 11:45:41;;;;;;;3.70;0.63;;;;;25.20;101852.00;;;;5089301;28;20193;-75
2022/05/13 11:48:22;;;;;;;3.03;0.75;;;;;25.20;101848.00;;;;5083834;28;20229;-76
2022/05/13 11:50:50;;;;;;;2.08;0.80;;;;;25.20;101850.00;;;;5080618;28;20229;-76
2022/05/13 11:53:46;;;;;;;1.92;0.55;;;;;25.10;101845.00;;;;5080335;28;20197;-76
2022/05/13 11:56:20;;;;;;;2.10;0.52;;;;;25.20;101844.00;;;;5039539;28;20194;-75
2022/05/13 11:58:54;;;;;;;1.75;0.47;;;;;25.30;101841.00;;;;5079007;28;20703;-75
2022/05/13 12:01:52;;;;;;;2.35;0.68;;;;;25.30;101856.00;;;;5079277;28;20289;-76
2022/05/13 12:04:35;;;;;;;0.50;0.32;;;;;25.30;101855.00;;;;5062996;28;20206;-76
2022/05/13 12:07:25;;;;;;;2.90;0.70;;;;;25.20;101858.00;;;;5079584;28;20198;-76
2022/05/13 12:09:58;;;;;;;1.58;0.60;;;;;25.30;101863.00;;;;5081946;28;20252;-76
2022/05/13 12:12:40;;;;;;;3.42;0.68;;;;;25.20;101852.00;;;;5083647;28;20198;-77
2022/05/13 12:15:14;;;;;;;0.68;0.40;;;;;25.20;101854.00;;;;5074234;28;20206;-76
2022/05/13 12:17:47;;;;;;;3.10;0.55;;;;;25.20;101853.00;;;;5089172;28;20918;-76
2022/05/13 12:20:24;;;;;;;3.38;0.60;;;;;25.20;101855.00;;;;5088161;28;20198;-77
2022/05/13 12:23:00;;;;;;;1.15;0.60;;;;;25.10;101852.00;;;;5090228;28;21016;-76
2022/05/13 12:25:50;;;;;;;1.70;0.80;;;;;25.00;101869.00;;;;5075224;28;20292;-77
2022/05/13 12:28:39;;;;;;;3.30;0.50;;;;;25.00;101864.00;;;;5076692;28;20251;-77
2022/05/13 12:31:34;;;;;;;2.67;0.60;;;;;24.90;101856.00;;;;5085093;28;20205;-76
2022/05/13 12:39:55;;;;;;;1.25;0.80;;;;;24.80;101854.00;;;;5075880;28;20239;-76
2022/05/13 12:42:39;;;;;;;1.35;0.50;;;;;24.70;101842.00;;;;5088343;28;20198;-76
2022/05/13 12:45:12;;;;;;;0.63;0.55;;;;;24.80;101852.00;;;;5090505;28;20194;-75
2022/05/13 12:48:12;;;;;;;2.78;0.47;;;;;24.70;101848.00;;;;5083084;28;20251;-77
2022/05/13 12:50:43;;;;;;;1.95;0.75;;;;;24.80;101853.00;;;;5085747;28;20214;-77
2022/05/13 12:53:39;;;;;;;1.70;0.50;;;;;24.70;101855.00;;;;5084083;28;20195;-78
2022/05/13 12:56:21;;;;;;;1.30;0.52;;;;;24.70;101860.00;;;;5085825;28;20219;-78
2022/05/13 12:58:54;;;;;;;1.63;0.50;;;;;24.80;101853.00;;;;5087973;28;20198;-75